Time;durP1;ratioP1;P1;durP2;ratioP2;P2;SDS_P1;SDS_P2;PMS_P1;PMS_P2;Temp;Humidity;BMP_temperature;BMP_pressure;BME280_temperature;BME280_humidity;BME280_pressure;Samples;Min_cycle;Max_cycle;Signal;HPM_P1;HPM_P2
2024/03/27 00:00:23;;;;;;;10.00;3.40;;;;;;;1.03;100.00;100055.84;106033;1254;60873;-57
2024/03/27 00:02:51;;;;;;;9.90;5.10;;;;;;;1.05;100.00;100060.42;106118;1259;73185;-59
2024/03/27 00:05:18;;;;;;;9.80;4.30;;;;;;;1.06;100.00;100059.73;106033;1269;67129;-57
2024/03/27 00:07:46;;;;;;;8.20;4.60;;;;;;;1.07;100.00;100056.54;106062;1260;72677;-58
2024/03/27 00:10:16;;;;;;;7.50;4.00;;;;;;;1.06;100.00;100054.60;106021;1255;61425;-58
2024/03/27 00:12:43;;;;;;;9.80;4.10;;;;;;;1.05;100.00;100058.48;105886;1259;61216;-59
2024/03/27 00:15:12;;;;;;;10.20;5.50;;;;;;;1.01;100.00;100059.23;105902;1258;76778;-59
2024/03/27 00:17:39;;;;;;;7.20;4.20;;;;;;;0.95;100.00;100065.61;105856;1260;66162;-58
2024/03/27 00:20:08;;;;;;;7.70;4.20;;;;;;;0.88;100.00;100069.00;105783;1259;72751;-58
2024/03/27 00:22:35;;;;;;;9.70;4.50;;;;;;;0.79;100.00;100071.16;106054;1259;61339;-59
2024/03/27 00:25:03;;;;;;;7.80;4.00;;;;;;;0.72;100.00;100073.83;105907;1267;61256;-57
2024/03/27 00:27:30;;;;;;;9.60;4.20;;;;;;;0.70;100.00;100075.07;105951;1269;73326;-58
2024/03/27 00:29:58;;;;;;;10.70;4.30;;;;;;;0.69;100.00;100074.01;106147;1260;66494;-57
2024/03/27 00:32:25;;;;;;;12.60;4.10;;;;;;;0.69;100.00;100075.06;105911;1270;73169;-57
2024/03/27 00:34:52;;;;;;;8.40;4.30;;;;;;;0.70;100.00;100078.77;105882;1260;61402;-59
2024/03/27 00:37:20;;;;;;;6.90;3.10;;;;;;;0.71;100.00;100075.77;105944;1259;62239;-57
2024/03/27 00:39:47;;;;;;;6.30;2.60;;;;;;;0.72;100.00;100074.71;105925;1259;74747;-57
2024/03/27 00:42:14;;;;;;;4.30;2.30;;;;;;;0.74;100.00;100069.77;105898;1260;69886;-59
2024/03/27 00:44:42;;;;;;;3.60;2.80;;;;;;;0.76;100.00;100072.23;105959;1254;72730;-57
2024/03/27 00:47:09;;;;;;;5.90;2.50;;;;;;;0.79;100.00;100077.68;105929;1270;62124;-58
2024/03/27 00:49:36;;;;;;;5.10;1.80;;;;;;;0.81;100.00;100078.39;106012;1258;61166;-57
2024/03/27 00:52:03;;;;;;;7.80;2.80;;;;;;;0.81;100.00;100081.05;105944;1260;73246;-58
2024/03/27 00:54:33;;;;;;;4.00;2.50;;;;;;;0.81;100.00;100078.57;105867;1261;67620;-58
2024/03/27 00:57:01;;;;;;;5.10;2.70;;;;;;;0.81;100.00;100077.50;106277;1255;71777;-58
2024/03/27 00:59:32;;;;;;;7.20;3.30;;;;;;;0.80;100.00;100074.67;105941;1256;61308;-59
2024/03/27 01:01:59;;;;;;;7.50;3.00;;;;;;;0.77;100.00;100076.30;105987;1260;62302;-58
2024/03/27 01:04:27;;;;;;;6.40;3.20;;;;;;;0.74;100.00;100077.36;105959;1271;74736;-58
2024/03/27 01:06:54;;;;;;;5.60;2.80;;;;;;;0.73;100.00;100077.54;106689;1259;66815;-58
2024/03/27 01:09:21;;;;;;;5.70;2.40;;;;;;;0.71;100.00;100076.13;105967;1259;75474;-58
2024/03/27 01:11:48;;;;;;;7.70;2.50;;;;;;;0.70;100.00;100077.53;105943;1260;61367;-59
2024/03/27 01:14:16;;;;;;;5.60;2.30;;;;;;;0.71;100.00;100076.31;105908;1254;61316;-59
2024/03/27 01:16:43;;;;;;;6.50;1.80;;;;;;;0.71;100.00;100077.70;105889;1259;73416;-58
2024/03/27 01:19:10;;;;;;;5.90;2.10;;;;;;;0.72;100.00;100076.66;105957;1260;66905;-58
2024/03/27 01:21:37;;;;;;;4.00;1.70;;;;;;;0.73;100.00;100081.79;105801;1268;71494;-59
2024/03/27 01:24:04;;;;;;;4.60;1.80;;;;;;;0.74;100.00;100085.84;105928;1254;61289;-58
2024/03/27 01:26:31;;;;;;;6.00;2.30;;;;;;;0.75;100.00;100088.67;105945;1254;61061;-59
2024/03/27 01:28:59;;;;;;;8.10;2.30;;;;;;;0.76;100.00;100089.02;105917;1258;74719;-59
2024/03/27 01:31:26;;;;;;;8.60;2.10;;;;;;;0.78;100.00;100093.76;105909;1259;65357;-58
2024/03/27 01:33:53;;;;;;;6.20;1.80;;;;;;;0.76;100.00;100097.48;105890;1267;72019;-58
2024/03/27 01:36:20;;;;;;;6.80;2.00;;;;;;;0.73;100.00;100101.73;105919;1260;61338;-58
2024/03/27 01:38:47;;;;;;;5.30;2.30;;;;;;;0.72;100.00;100108.27;106008;1255;61273;-59
2024/03/27 01:41:15;;;;;;;3.80;1.90;;;;;;;0.70;100.00;100105.27;105896;1258;76180;-58
2024/03/27 01:43:42;;;;;;;6.60;2.40;;;;;;;0.69;100.00;100109.33;109172;1254;65428;-58
2024/03/27 01:46:10;;;;;;;4.20;2.10;;;;;;;0.67;100.00;100109.17;109018;1254;72656;-58
2024/03/27 01:48:37;;;;;;;3.60;2.00;;;;;;;0.64;100.00;100109.70;108947;1254;59431;-57
2024/03/27 01:51:04;;;;;;;5.20;2.00;;;;;;;0.61;100.00;100109.70;108908;1259;59710;-57
2024/03/27 01:53:31;;;;;;;6.10;2.60;;;;;;;0.58;100.00;100112.02;108985;1254;72163;-58
2024/03/27 01:55:58;;;;;;;4.60;1.50;;;;;;;0.55;100.00;100115.55;108870;1259;67921;-57
2024/03/27 01:58:26;;;;;;;6.80;1.90;;;;;;;0.53;100.00;100116.09;109068;1254;70882;-57
2024/03/27 02:00:53;;;;;;;5.50;1.30;;;;;;;0.51;100.00;100116.27;108964;1254;59625;-58
2024/03/27 02:03:20;;;;;;;4.40;1.50;;;;;;;0.50;100.00;100114.88;106570;1259;61355;-57
2024/03/27 02:05:47;;;;;;;5.00;2.80;;;;;;;0.51;100.00;100116.82;105966;1254;73354;-57
2024/03/27 02:08:15;;;;;;;5.20;2.00;;;;;;;0.52;100.00;100116.45;105838;1263;69533;-58
2024/03/27 02:10:42;;;;;;;7.60;1.50;;;;;;;0.53;100.00;100116.96;105905;1254;72640;-58
2024/03/27 02:13:09;;;;;;;7.10;2.10;;;;;;;0.52;100.00;100119.79;105920;1260;61346;-57
2024/03/27 02:15:36;;;;;;;6.80;2.40;;;;;;;0.53;100.00;100115.55;105944;1270;61330;-57
2024/03/27 02:18:04;;;;;;;3.70;1.80;;;;;;;0.55;100.00;100113.44;105908;1257;73356;-57
2024/03/27 02:21:24;;;;;;;2.70;1.20;;;;;;;0.56;100.00;100116.09;108923;1257;67276;-58
2024/03/27 02:24:02;;;;;;;5.80;1.40;;;;;;;0.55;100.00;100115.73;107965;1257;72765;-57
2024/03/27 02:26:36;;;;;;;6.90;2.20;;;;;;;0.52;100.00;100113.79;106084;1260;61327;-58
2024/03/27 02:29:03;;;;;;;6.00;1.80;;;;;;;0.50;100.00;100113.29;105723;1262;61120;-57
2024/03/27 02:31:31;;;;;;;3.50;1.50;;;;;;;0.47;100.00;100122.64;106078;1257;73322;-57
2024/03/27 02:33:58;;;;;;;3.40;1.70;;;;;;;0.44;100.00;100129.88;105930;1260;65645;-57
2024/03/27 02:36:26;;;;;;;5.20;1.80;;;;;;;0.41;100.00;100131.31;105935;1267;71619;-57
2024/03/27 02:38:53;;;;;;;3.90;1.60;;;;;;;0.35;100.00;100131.65;105924;1267;61218;-56
2024/03/27 02:41:20;;;;;;;6.80;2.30;;;;;;;0.25;100.00;100131.32;105873;1254;61383;-57
2024/03/27 02:43:47;;;;;;;5.20;1.70;;;;;;;0.20;100.00;100130.96;105935;1254;73415;-57
2024/03/27 02:46:14;;;;;;;8.90;2.00;;;;;;;0.19;100.00;100132.37;105920;1259;65755;-57
2024/03/27 02:48:41;;;;;;;5.60;2.10;;;;;;;0.18;100.00;100129.38;105866;1264;72752;-56
2024/03/27 02:51:09;;;;;;;6.20;1.90;;;;;;;0.18;100.00;100132.20;105909;1259;61815;-57
2024/03/27 02:53:36;;;;;;;5.30;1.70;;;;;;;0.15;100.00;100129.56;105893;1256;61123;-56
2024/03/27 02:56:04;;;;;;;4.00;1.50;;;;;;;0.16;100.00;100133.27;105900;1259;74552;-56
2024/03/27 02:58:31;;;;;;;6.80;2.00;;;;;;;0.17;100.00;100133.44;106080;1264;66029;-57
2024/03/27 03:00:59;;;;;;;4.90;2.00;;;;;;;0.18;100.00;100133.25;106003;1260;71762;-56
2024/03/27 03:03:26;;;;;;;5.10;1.40;;;;;;;0.19;100.00;100130.43;105932;1253;61215;-56
2024/03/27 03:05:53;;;;;;;4.30;1.70;;;;;;;0.21;100.00;100132.20;105804;1257;253147;-57
2024/03/27 03:10:26;;;;;;;10.80;3.30;;;;;;;0.23;100.00;100135.56;102392;1301;601235;-56
2024/03/27 03:12:53;;;;;;;6.40;3.00;;;;;;;0.21;100.00;100137.49;105142;1275;59847;-57
2024/03/27 03:15:21;;;;;;;9.20;2.80;;;;;;;0.19;100.00;100131.48;104857;1276;60672;-56
2024/03/27 03:17:48;;;;;;;9.00;3.40;;;;;;;0.18;100.00;100137.31;104869;1270;73135;-57
2024/03/27 03:20:15;;;;;;;6.20;2.00;;;;;;;0.16;100.00;100138.39;104810;1273;66827;-57
2024/03/27 03:22:43;;;;;;;6.60;3.00;;;;;;;0.13;100.00;100142.79;104898;1275;72763;-57
2024/03/27 03:25:10;;;;;;;7.80;2.90;;;;;;;0.10;100.00;100145.42;104758;1282;310409;-56
2024/03/27 03:27:37;;;;;;;5.30;2.80;;;;;;;0.05;100.00;100151.09;105069;1272;60344;-56
2024/03/27 03:30:06;;;;;;;8.70;3.30;;;;;;;-0.01;100.00;100155.85;104979;1272;73211;-56
2024/03/27 03:32:34;;;;;;;9.90;2.80;;;;;;;-0.07;100.00;100152.50;105420;1263;67082;-56
2024/03/27 03:35:01;;;;;;;6.90;2.30;;;;;;;-0.13;100.00;100155.84;105323;1281;73139;-57
2024/03/27 03:37:29;;;;;;;7.40;2.10;;;;;;;-0.18;100.00;100155.48;105223;1268;60989;-56
2024/03/27 03:39:56;;;;;;;4.50;1.60;;;;;;;-0.20;100.00;100157.24;105234;1269;61486;-56
2024/03/27 03:42:23;;;;;;;5.40;2.00;;;;;;;-0.18;100.00;100159.36;105193;1268;76535;-55
2024/03/27 03:44:50;;;;;;;5.40;1.90;;;;;;;-0.15;100.00;100159.17;105236;1268;65906;-57
2024/03/27 03:47:17;;;;;;;7.60;2.20;;;;;;;-0.12;100.00;100160.95;105226;1268;72801;-58
2024/03/27 03:49:44;;;;;;;7.20;2.40;;;;;;;-0.10;100.00;100164.85;105295;1266;60325;-56
2024/03/27 03:52:12;;;;;;;7.10;2.50;;;;;;;-0.07;100.00;100165.00;105237;1264;61386;-56
2024/03/27 03:54:39;;;;;;;5.90;2.70;;;;;;;-0.06;100.00;100165.36;105255;1268;73871;-57
2024/03/27 03:57:06;;;;;;;5.20;2.60;;;;;;;-0.07;100.00;100165.36;105273;1267;69231;-56
2024/03/27 03:59:33;;;;;;;6.00;2.10;;;;;;;-0.06;100.00;100164.30;105281;1265;73160;-56
2024/03/27 04:02:00;;;;;;;6.00;2.50;;;;;;;-0.07;100.00;100162.02;105319;1269;60475;-58
2024/03/27 04:04:28;;;;;;;6.60;2.90;;;;;;;-0.09;100.00;100160.27;105281;1269;60535;-56
2024/03/27 04:06:56;;;;;;;8.90;2.90;;;;;;;-0.12;100.00;100157.61;105238;1269;73838;-59
2024/03/27 04:09:23;;;;;;;8.60;2.80;;;;;;;-0.15;100.00;100155.48;105627;1262;65792;-56
2024/03/27 04:11:50;;;;;;;13.10;3.20;;;;;;;-0.14;100.00;100158.30;105617;1263;72790;-57
2024/03/27 04:14:17;;;;;;;3.60;1.90;;;;;;;-0.14;100.00;100159.71;105594;1260;61379;-57
2024/03/27 04:16:44;;;;;;;2.60;1.60;;;;;;;-0.12;100.00;100163.08;105629;1262;60470;-59
2024/03/27 04:19:11;;;;;;;4.30;1.50;;;;;;;-0.08;100.00;100163.78;105565;1277;73949;-56
2024/03/27 04:21:39;;;;;;;5.70;1.70;;;;;;;-0.04;100.00;100163.43;105532;1271;66971;-56
2024/03/27 04:24:07;;;;;;;7.70;2.30;;;;;;;0.00;100.00;100166.08;105610;1260;71547;-56
2024/03/27 04:26:34;;;;;;;5.10;2.10;;;;;;;0.06;100.00;100162.38;105665;1263;60864;-56
2024/03/27 04:29:02;;;;;;;3.40;2.10;;;;;;;0.13;100.00;100159.92;105588;1273;60396;-57
2024/03/27 04:31:29;;;;;;;6.20;2.50;;;;;;;0.20;100.00;100157.43;105804;1262;72917;-56
2024/03/27 04:33:56;;;;;;;8.10;3.20;;;;;;;0.25;100.00;100153.73;105640;1263;67089;-58
2024/03/27 04:36:23;;;;;;;8.30;2.80;;;;;;;0.32;100.00;100152.67;105589;1260;72803;-54
2024/03/27 04:38:52;;;;;;;10.20;2.10;;;;;;;0.37;100.00;100147.36;105575;1258;60741;-54
2024/03/27 04:41:19;;;;;;;4.70;2.00;;;;;;;0.45;100.00;100153.02;105590;1267;60490;-53
2024/03/27 04:43:46;;;;;;;8.30;2.60;;;;;;;0.58;100.00;100156.16;105605;1260;73888;-54
2024/03/27 04:46:14;;;;;;;5.40;2.50;;;;;;;0.76;100.00;100152.95;105609;1262;66327;-55
2024/03/27 04:48:41;;;;;;;4.90;2.70;;;;;;;0.94;100.00;100155.21;105579;1265;72770;-55
2024/03/27 04:51:09;;;;;;;6.50;2.90;;;;;;;1.09;100.00;100151.61;105612;1269;60458;-54
2024/03/27 04:53:36;;;;;;;10.00;3.70;;;;;;;1.21;100.00;100149.09;105599;1260;60627;-55
2024/03/27 04:56:04;;;;;;;6.50;3.60;;;;;;;1.33;100.00;100154.16;105594;1263;73782;-54
2024/03/27 04:58:31;;;;;;;6.30;2.60;;;;;;;1.44;100.00;100153.39;105635;1265;66700;-55
2024/03/27 05:00:58;;;;;;;3.50;2.10;;;;;;;1.54;100.00;100156.00;105619;1262;71794;-56
2024/03/27 05:03:25;;;;;;;8.70;2.00;;;;;;;1.65;100.00;100152.77;105415;1263;60882;-55
2024/03/27 05:05:52;;;;;;;5.50;2.00;;;;;;;1.77;100.00;100152.86;105566;1260;60602;-55
2024/03/27 05:08:20;;;;;;;8.50;1.70;;;;;;;1.94;100.00;100150.44;105580;1263;76196;-55
2024/03/27 05:10:47;;;;;;;6.90;2.00;;;;;;;2.12;100.00;100145.17;105588;1263;66768;-55
2024/03/27 05:13:15;;;;;;;6.90;2.10;;;;;;;2.33;100.00;100143.05;105596;1266;72651;-56
2024/03/27 05:15:42;;;;;;;7.60;2.70;;;;;;;2.59;100.00;100139.79;108659;1259;59325;-55
2024/03/27 05:18:09;;;;;;;3.60;2.20;;;;;;;2.83;100.00;100136.35;108639;1259;58886;-55
2024/03/27 05:20:37;;;;;;;2.70;1.90;;;;;;;3.03;100.00;100134.70;108172;1259;73809;-55
2024/03/27 05:23:04;;;;;;;7.10;3.40;;;;;;;3.20;100.00;100138.04;105771;1261;68859;-56
2024/03/27 05:25:31;;;;;;;4.70;3.30;;;;;;;3.36;100.00;100141.20;105812;1263;72750;-55
2024/03/27 05:27:59;;;;;;;6.30;3.10;;;;;;;3.47;100.00;100142.84;105849;1272;60616;-54
2024/03/27 05:30:26;;;;;;;6.60;3.80;;;;;;;3.56;100.00;100146.44;105817;1264;61148;-54
2024/03/27 05:32:53;;;;;;;5.90;3.60;;;;;;;3.65;100.00;100155.36;105875;1262;73954;-55
2024/03/27 05:35:21;;;;;;;4.90;3.30;;;;;;;3.73;100.00;100162.16;105934;1259;66980;-55
2024/03/27 05:37:49;;;;;;;6.30;3.40;;;;;;;3.84;100.00;100164.15;107342;1262;71783;-56
2024/03/27 05:40:16;;;;;;;5.90;2.80;;;;;;;3.95;100.00;100166.30;105836;1268;60543;-54
2024/03/27 05:42:45;;;;;;;2.70;1.90;;;;;;;4.08;100.00;100166.09;105810;1261;66028;-56
2024/03/27 05:45:12;;;;;;;5.20;2.60;;;;;;;4.23;100.00;100172.44;105825;1262;73496;-56
2024/03/27 05:47:41;;;;;;;6.40;2.20;;;;;;;4.38;100.00;100175.55;106200;1256;66852;-55
2024/03/27 05:50:09;;;;;;;5.40;2.20;;;;;;;4.55;100.00;100178.11;106289;1261;71443;-56
2024/03/27 05:52:37;;;;;;;3.00;1.30;;;;;;;4.72;100.00;100178.89;105852;1260;60469;-56
2024/03/27 05:55:04;;;;;;;3.30;1.60;;;;;;;4.88;100.00;100183.02;105907;1270;61952;-56
2024/03/27 05:57:32;;;;;;;4.90;2.40;;;;;;;5.05;100.00;100185.40;105711;1270;74203;-56
2024/03/27 06:00:00;;;;;;;3.60;0.70;;;;;;;5.19;100.00;100179.95;106014;1259;68266;-57
2024/03/27 06:02:28;;;;;;;0.90;0.60;;;;;;;5.35;100.00;100178.56;105848;1260;73284;-56
2024/03/27 06:04:55;;;;;;;0.90;0.30;;;;;;;5.52;100.00;100180.17;105916;1260;60386;-56
2024/03/27 06:07:22;;;;;;;0.80;0.40;;;;;;;5.68;100.00;100183.20;105748;1267;60392;-56
2024/03/27 06:09:50;;;;;;;0.80;0.40;;;;;;;5.84;100.00;100187.84;105536;1262;72670;-56
2024/03/27 06:12:17;;;;;;;0.40;0.30;;;;;;;6.00;100.00;100189.65;105648;1261;66863;-55
2024/03/27 06:14:44;;;;;;;2.20;0.30;;;;;;;6.13;100.00;100187.57;105817;1270;71490;-55
2024/03/27 06:17:12;;;;;;;0.50;0.30;;;;;;;6.25;100.00;100183.91;106223;1259;61500;-56
2024/03/27 06:19:39;;;;;;;0.30;0.20;;;;;;;6.36;100.00;100185.39;105742;1263;60471;-56
2024/03/27 06:22:07;;;;;;;1.80;0.30;;;;;;;6.48;100.00;100186.91;105743;1263;73945;-57
2024/03/27 06:24:34;;;;;;;0.30;0.30;;;;;;;6.58;100.00;100187.72;105785;1263;66789;-56
2024/03/27 06:27:01;;;;;;;0.80;0.30;;;;;;;6.68;100.00;100185.67;105773;1261;71448;-56
2024/03/27 06:29:28;;;;;;;1.70;0.40;;;;;;;6.77;100.00;100182.59;105833;1272;60857;-57
2024/03/27 06:31:55;;;;;;;0.50;0.30;;;;;;;6.87;100.00;100185.01;105799;1263;60549;-56
2024/03/27 06:34:23;;;;;;;0.50;0.30;;;;;;;6.96;100.00;100184.20;105797;1270;73208;-56
2024/03/27 06:36:50;;;;;;;0.60;0.30;;;;;;;7.08;100.00;100189.27;105843;1263;64791;-56
2024/03/27 06:39:18;;;;;;;0.60;0.40;;;;;;;7.18;100.00;100192.02;105835;1260;71483;-56
2024/03/27 06:41:45;;;;;;;0.50;0.30;;;;;;;7.28;100.00;100194.58;106021;1270;61436;-57
2024/03/27 06:44:12;;;;;;;0.60;0.40;;;;;;;7.37;100.00;100197.00;105811;1264;61038;-56
2024/03/27 06:46:40;;;;;;;0.90;0.50;;;;;;;7.45;100.00;100192.67;105827;1260;74339;-56
2024/03/27 06:49:21;;;;;;;1.60;0.50;;;;;;;7.52;100.00;100196.40;105811;1262;65911;-57
2024/03/27 06:51:48;;;;;;;0.80;0.60;;;;;;;7.60;100.00;100198.32;105865;1269;72486;-57
2024/03/27 06:54:16;;;;;;;0.80;0.50;;;;;;;7.65;100.00;100199.41;105764;1261;60499;-56
2024/03/27 06:56:44;;;;;;;1.10;0.50;;;;;;;7.71;100.00;100201.58;106149;1262;60344;-56
2024/03/27 06:59:11;;;;;;;0.90;0.40;;;;;;;7.74;100.00;100203.28;105830;1263;76858;-57
2024/03/27 07:01:39;;;;;;;1.00;0.50;;;;;;;7.71;100.00;100194.07;106536;1263;65680;-58
2024/03/27 07:04:06;;;;;;;0.80;0.60;;;;;;;7.62;100.00;100195.04;105857;1266;72748;-57
2024/03/27 07:06:33;;;;;;;1.70;0.60;;;;;;;7.59;100.00;100193.68;105793;1258;60380;-55
2024/03/27 07:09:01;;;;;;;0.60;0.40;;;;;;;7.58;100.00;100197.10;105892;1265;60384;-57
2024/03/27 07:11:28;;;;;;;0.80;0.40;;;;;;;7.55;100.00;100199.89;105884;1262;73004;-58
2024/03/27 07:13:55;;;;;;;1.40;0.50;;;;;;;7.56;100.00;100198.96;105932;1260;65957;-57
2024/03/27 07:16:23;;;;;;;1.00;0.50;;;;;;;7.58;100.00;100193.00;105906;1262;72765;-57
2024/03/27 07:18:51;;;;;;;1.30;0.40;;;;;;;7.56;100.00;100191.64;105942;1269;61310;-57
2024/03/27 07:21:18;;;;;;;1.80;0.40;;;;;;;7.60;100.00;100187.23;105810;1262;61349;-57
2024/03/27 07:23:46;;;;;;;0.50;0.30;;;;;;;7.68;100.00;100190.23;105896;1257;74015;-58
2024/03/27 07:26:13;;;;;;;0.70;0.30;;;;;;;7.76;100.00;100185.89;105860;1270;67944;-56
2024/03/27 07:28:40;;;;;;;0.90;0.40;;;;;;;7.85;100.00;100187.03;105708;1273;71450;-57
2024/03/27 07:31:07;;;;;;;0.70;0.40;;;;;;;7.95;100.00;100187.78;105805;1263;61251;-57
2024/03/27 07:33:34;;;;;;;0.70;0.30;;;;;;;8.05;100.00;100185.69;105746;1262;61135;-56
2024/03/27 07:36:02;;;;;;;0.40;0.40;;;;;;;8.14;100.00;100178.27;105814;1262;75080;-57
2024/03/27 07:38:29;;;;;;;0.50;0.30;;;;;;;8.22;100.00;100176.03;105805;1259;65700;-58
2024/03/27 07:40:56;;;;;;;1.30;0.50;;;;;;;8.30;100.00;100171.49;105860;1260;71422;-57
2024/03/27 07:43:23;;;;;;;0.70;0.50;;;;;;;8.38;100.00;100169.83;105841;1266;61267;-56
2024/03/27 07:45:51;;;;;;;0.50;0.30;;;;;;;8.47;100.00;100170.62;105901;1264;61208;-56
2024/03/27 07:48:18;;;;;;;1.10;0.40;;;;;;;8.56;100.00;100173.34;105904;1261;75236;-57
2024/03/27 07:50:45;;;;;;;1.20;0.30;;;;;;;8.65;100.00;100166.08;105881;1260;67496;-56
2024/03/27 07:53:12;;;;;;;0.50;0.30;;;;;;;8.73;100.00;100162.02;105690;1273;73391;-57
2024/03/27 07:55:40;;;;;;;0.40;0.30;;;;;;;8.80;100.00;100163.23;108807;1256;59539;-56
2024/03/27 07:58:07;;;;;;;1.50;0.30;;;;;;;8.82;100.00;100164.05;108743;1256;60078;-57
2024/03/27 08:00:34;;;;;;;0.80;0.40;;;;;;;8.86;100.00;100166.40;108751;1260;74730;-56
2024/03/27 08:03:03;;;;;;;0.80;0.40;;;;;;;8.90;100.00;100173.25;108788;1257;67649;-57
2024/03/27 08:05:30;;;;;;;2.70;0.60;;;;;;;8.97;100.00;100174.98;108831;1257;70643;-55
2024/03/27 08:07:58;;;;;;;0.70;0.50;;;;;;;9.01;100.00;100172.33;108827;1257;58882;-56
2024/03/27 08:10:26;;;;;;;0.80;0.50;;;;;;;9.04;100.00;100170.77;108766;1257;60062;-57
2024/03/27 08:12:53;;;;;;;0.90;0.60;;;;;;;9.07;100.00;100166.39;109006;1259;73972;-56
2024/03/27 08:15:21;;;;;;;1.80;0.50;;;;;;;9.11;100.00;100160.87;108713;1257;67248;-57
2024/03/27 08:17:48;;;;;;;1.20;0.50;;;;;;;9.15;100.00;100159.67;107944;1259;71451;-57
2024/03/27 08:20:17;;;;;;;2.00;0.50;;;;;;;9.16;100.00;100156.95;105858;1270;61302;-57
2024/03/27 08:22:46;;;;;;;0.90;0.50;;;;;;;9.21;100.00;100154.96;105847;1256;61360;-56
2024/03/27 08:25:13;;;;;;;1.90;0.30;;;;;;;9.27;100.00;100152.21;106142;1257;74773;-57
2024/03/27 08:27:40;;;;;;;2.00;0.30;;;;;;;9.33;100.00;100152.01;105741;1257;66316;-56
2024/03/27 08:30:08;;;;;;;0.50;0.40;;;;;;;9.38;100.00;100149.30;105732;1260;71466;-56
2024/03/27 08:32:35;;;;;;;0.50;0.30;;;;;;;9.37;100.00;100152.38;105882;1270;62128;-57
2024/03/27 08:35:03;;;;;;;0.80;0.40;;;;;;;9.38;100.00;100145.20;105765;1263;61362;-56
2024/03/27 08:37:30;;;;;;;0.90;0.30;;;;;;;9.42;100.00;100143.27;105980;1260;73394;-58
2024/03/27 08:39:58;;;;;;;0.60;0.30;;;;;;;9.45;100.00;100138.28;105901;1261;66611;-57
2024/03/27 08:42:25;;;;;;;0.40;0.30;;;;;;;9.49;100.00;100141.00;105770;1264;72720;-55
2024/03/27 08:44:53;;;;;;;0.70;0.20;;;;;;;9.54;100.00;100139.92;105849;1264;60027;-57
2024/03/27 08:47:20;;;;;;;0.50;0.30;;;;;;;9.58;100.00;100139.77;106026;1259;60113;-57
2024/03/27 08:49:47;;;;;;;1.80;0.20;;;;;;;9.63;100.00;100136.19;105849;1257;74929;-56
2024/03/27 08:52:14;;;;;;;0.40;0.30;;;;;;;9.67;100.00;100138.38;105798;1270;69639;-57
2024/03/27 08:54:42;;;;;;;0.40;0.30;;;;;;;9.70;100.00;100141.84;105839;1257;71445;-57
2024/03/27 08:57:09;;;;;;;0.90;0.30;;;;;;;9.72;100.00;100143.73;105755;1273;61310;-58
2024/03/27 08:59:36;;;;;;;0.90;0.30;;;;;;;9.73;100.00;100142.06;105701;1260;61311;-58
2024/03/27 09:02:04;;;;;;;2.70;0.40;;;;;;;9.74;100.00;100142.20;105739;1258;74690;-54
2024/03/27 09:04:31;;;;;;;0.90;0.50;;;;;;;9.75;100.00;100139.84;105794;1273;66649;-57
2024/03/27 09:06:59;;;;;;;1.40;0.40;;;;;;;9.72;100.00;100133.50;106350;1260;72861;-57
2024/03/27 09:09:26;;;;;;;0.70;0.40;;;;;;;9.67;100.00;100133.70;105919;1257;61260;-55
2024/03/27 09:11:53;;;;;;;0.50;0.30;;;;;;;9.65;100.00;100136.48;105610;1261;61178;-57
2024/03/27 09:14:26;;;;;;;1.10;0.50;;;;;;;9.63;100.00;100141.19;105758;1257;75246;-57
2024/03/27 09:16:54;;;;;;;0.70;0.40;;;;;;;9.68;100.00;100134.92;105731;1260;65701;-57
2024/03/27 09:19:21;;;;;;;0.80;0.40;;;;;;;9.76;100.00;100133.91;105789;1260;73251;-56
2024/03/27 09:21:49;;;;;;;0.80;0.50;;;;;;;9.84;100.00;100133.02;106836;1257;60191;-57
2024/03/27 09:24:23;;;;;;;1.50;0.40;;;;;;;9.91;100.00;100126.85;107910;1260;61347;-57
2024/03/27 09:26:50;;;;;;;0.50;0.30;;;;;;;9.94;100.00;100130.14;105823;1260;74703;-54
2024/03/27 09:29:19;;;;;;;0.90;0.40;;;;;;;9.98;100.00;100126.04;105743;1264;66151;-56
2024/03/27 09:31:46;;;;;;;1.70;0.50;;;;;;;9.99;100.00;100128.14;105857;1260;72865;-58
2024/03/27 09:34:15;;;;;;;0.70;0.40;;;;;;;10.03;100.00;100125.64;105825;1261;61727;-57
2024/03/27 09:36:42;;;;;;;0.50;0.40;;;;;;;10.08;100.00;100122.58;105862;1259;60559;-57
2024/03/27 09:39:09;;;;;;;0.80;0.40;;;;;;;10.13;100.00;100123.44;105807;1258;74716;-56
2024/03/27 09:41:36;;;;;;;0.70;0.40;;;;;;;10.19;100.00;100123.79;105834;1260;65215;-55
2024/03/27 09:44:04;;;;;;;0.90;0.40;;;;;;;10.23;100.00;100122.52;105862;1258;71552;-56
2024/03/27 09:46:31;;;;;;;1.70;0.40;;;;;;;10.28;100.00;100122.70;105868;1261;61215;-56
2024/03/27 09:48:59;;;;;;;1.70;0.80;;;;;;;10.32;100.00;100117.13;105925;1257;62042;-57
2024/03/27 09:51:26;;;;;;;0.70;0.60;;;;;;;10.35;100.00;100109.67;105937;1261;74753;-56
2024/03/27 09:53:53;;;;;;;0.70;0.40;;;;;;;10.39;100.00;100111.29;105764;1274;66447;-57
2024/03/27 09:56:20;;;;;;;0.80;0.40;;;;;;;10.43;100.00;100108.97;105780;1257;71472;-56
2024/03/27 09:58:47;;;;;;;0.70;0.50;;;;;;;10.45;100.00;100112.09;105727;1260;61279;-56
2024/03/27 10:01:14;;;;;;;0.70;0.30;;;;;;;10.47;100.00;100113.99;105764;1270;60916;-56
2024/03/27 10:03:42;;;;;;;0.90;0.50;;;;;;;10.48;100.00;100113.23;105816;1259;73710;-55
2024/03/27 10:06:09;;;;;;;0.80;0.50;;;;;;;10.50;100.00;100118.88;105760;1258;66280;-55
2024/03/27 10:08:36;;;;;;;1.50;0.40;;;;;;;10.52;100.00;100118.99;105775;1261;72738;-56
2024/03/27 10:11:04;;;;;;;0.60;0.40;;;;;;;10.53;100.00;100117.33;105712;1261;62364;-56
2024/03/27 10:13:31;;;;;;;0.70;0.50;;;;;;;10.56;100.00;100112.34;105681;1264;61280;-57
2024/03/27 10:15:58;;;;;;;0.80;0.50;;;;;;;10.62;100.00;100112.64;105799;1260;74709;-55
2024/03/27 10:18:26;;;;;;;0.80;0.40;;;;;;;10.69;100.00;100109.45;105734;1273;66149;-57
2024/03/27 10:20:53;;;;;;;0.90;0.30;;;;;;;10.73;100.00;100108.39;105804;1260;71536;-59
2024/03/27 10:23:20;;;;;;;0.30;0.30;;;;;;;10.74;100.00;100108.16;105718;1270;61634;-56
2024/03/27 10:25:47;;;;;;;1.40;0.40;;;;;;;10.75;100.00;100104.90;105825;1257;61520;-55
2024/03/27 10:28:14;;;;;;;0.60;0.40;;;;;;;10.73;100.00;100103.73;105746;1271;73826;-56
2024/03/27 10:30:42;;;;;;;0.50;0.40;;;;;;;10.73;100.00;100099.74;105776;1256;66940;-56
2024/03/27 10:33:09;;;;;;;0.50;0.40;;;;;;;10.78;100.00;100095.98;105798;1260;73988;-55
2024/03/27 10:35:37;;;;;;;0.30;0.20;;;;;;;10.81;100.00;100089.37;105821;1257;61354;-56
2024/03/27 10:38:05;;;;;;;0.40;0.40;;;;;;;10.82;100.00;100096.49;108748;1255;59668;-55
2024/03/27 10:40:32;;;;;;;0.40;0.30;;;;;;;10.82;100.00;100091.44;108916;1256;76406;-56
2024/03/27 10:43:03;;;;;;;1.40;0.40;;;;;;;10.85;100.00;100083.08;108791;1257;66466;-55
2024/03/27 10:45:31;;;;;;;0.50;0.40;;;;;;;10.88;100.00;100086.17;107661;1256;73247;-55
2024/03/27 10:47:58;;;;;;;1.90;0.40;;;;;;;10.88;100.00;100079.56;105852;1261;60152;-56
2024/03/27 10:50:28;;;;;;;0.50;0.40;;;;;;;10.87;100.00;100074.23;105768;1272;61267;-56
2024/03/27 10:52:55;;;;;;;0.80;0.40;;;;;;;10.90;100.00;100079.97;105845;1257;73423;-57
2024/03/27 10:55:23;;;;;;;3.50;0.40;;;;;;;10.95;100.00;100082.45;106011;1256;67591;-57
2024/03/27 10:57:50;;;;;;;0.80;0.30;;;;;;;10.98;100.00;100085.52;105799;1257;72607;-55
2024/03/27 11:00:18;;;;;;;0.80;0.60;;;;;;;11.05;100.00;100087.60;105684;1263;61231;-55
2024/03/27 11:02:51;;;;;;;3.20;1.40;;;;;;;11.10;100.00;100082.35;108779;1256;59348;-55
2024/03/27 11:05:19;;;;;;;0.50;0.40;;;;;;;11.14;100.00;100080.34;108736;1256;74702;-58
2024/03/27 11:07:46;;;;;;;1.10;0.40;;;;;;;11.19;100.00;100081.19;108822;1256;66480;-55
2024/03/27 11:10:23;;;;;;;0.40;0.40;;;;;;;11.22;100.00;100076.56;107139;1256;71759;-54
2024/03/27 11:12:50;;;;;;;1.00;0.40;;;;;;;11.24;100.00;100071.05;106372;1257;61248;-54
2024/03/27 11:15:17;;;;;;;1.30;0.50;;;;;;;11.27;100.00;100064.45;105906;1258;61110;-55
2024/03/27 11:17:55;;;;;;;2.50;0.50;;;;;;;11.30;100.00;100062.50;105772;1260;74955;-58